Portada
METAR-TAF:

METAR-TAF

Aeroports :

Elsenborn

Bütgenbach, Bèlgica

latitud: 50-28N, longitud: 006-11E, altitud: 564 m

Observació

L'informe es va fer fa 19 minuts, a les 17:25 UTC
Vent 7 kt del Nord-Est
Temperatura 4°C
Humitat 48%
Pressió 1026 hPa
Visibilitat 10 km o més

METAR: EBLB 311725Z AUTO 05007KT 9999 NCD 04/M06 Q1026 BLU

Hora: 19:44 (17:44 UTC)


TAF: manca

Observacions i pronòstics meteorològics de més de 4000 aeroports (METAR i TAF).

Les estacions disponibles són els punts grocs i vermells al mapa.

Posi el ratolí al punt desitjat per veure el nom de l'estació.

Feu clic per veure les observacions i els pronòstics meteorològics.

Per canviar el mapa: feu clic els botons verds amb una creu de color negre per apropar; al botó verd amb un guió per allunyar la imatge; o en les fletxes verdes per a mapes adjacents.


METAR-TAF: